Terminal Aerodrome Forecast
Issued by NWS

Home | Current Version | Previous Version | Text Only | Print | Product List | Glossary On
Versions: 1 2 3 4 5 6 7 8 9 10 11 12
000
FTUS46 KSEW 280529
TAFBFI
TAF
KBFI 280529Z 2806/2906 00000KT P6SM SCT100 BKN200
     FM281000 15004KT P6SM BKN090 OVC150
     FM281400 16005KT P6SM -RA BKN040 OVC060
     FM282200 19008KT P6SM SCT040 BKN060 PROB30 2822/2902 -RA=

USA.gov is the U.S. government's official web portal to all federal, state and local government web resources and services.